sensor_id;sensor_type;location;lat;lon;timestamp;temperature;humidity
3208;DHT22;1616;52.394;9.756;2023-06-24T00:00:56;17.70;1.00
3208;DHT22;1616;52.394;9.756;2023-06-24T00:03:22;17.80;1.00
3208;DHT22;1616;52.394;9.756;2023-06-24T00:05:47;17.70;1.00
3208;DHT22;1616;52.394;9.756;2023-06-24T00:08:18;17.70;1.00
3208;DHT22;1616;52.394;9.756;2023-06-24T00:10:47;17.70;1.00
3208;DHT22;1616;52.394;9.756;2023-06-24T00:13:16;17.60;1.00
3208;DHT22;1616;52.394;9.756;2023-06-24T00:15:41;17.60;1.00
3208;DHT22;1616;52.394;9.756;2023-06-24T00:18:10;17.50;1.00
3208;DHT22;1616;52.394;9.756;2023-06-24T00:20:37;17.50;1.00
3208;DHT22;1616;52.394;9.756;2023-06-24T00:23:03;17.50;1.00
3208;DHT22;1616;52.394;9.756;2023-06-24T00:25:29;17.40;1.00
3208;DHT22;1616;52.394;9.756;2023-06-24T00:27:55;17.40;1.00
3208;DHT22;1616;52.394;9.756;2023-06-24T00:30:22;17.30;1.00
3208;DHT22;1616;52.394;9.756;2023-06-24T00:32:48;17.40;1.00
3208;DHT22;1616;52.394;9.756;2023-06-24T00:35:14;17.30;1.00
3208;DHT22;1616;52.394;9.756;2023-06-24T00:37:39;17.20;1.00
3208;DHT22;1616;52.394;9.756;2023-06-24T00:40:06;17.20;1.00
3208;DHT22;1616;52.394;9.756;2023-06-24T00:42:34;17.20;1.00
3208;DHT22;1616;52.394;9.756;2023-06-24T00:45:00;17.20;1.00
3208;DHT22;1616;52.394;9.756;2023-06-24T00:47:29;17.10;1.00
3208;DHT22;1616;52.394;9.756;2023-06-24T00:49:56;17.10;1.00
3208;DHT22;1616;52.394;9.756;2023-06-24T00:52:22;17.10;1.00
3208;DHT22;1616;52.394;9.756;2023-06-24T00:54:47;17.00;1.00
3208;DHT22;1616;52.394;9.756;2023-06-24T00:57:13;17.00;1.00
3208;DHT22;1616;52.394;9.756;2023-06-24T00:59:40;16.90;1.00
3208;DHT22;1616;52.394;9.756;2023-06-24T01:02:08;16.90;1.00
3208;DHT22;1616;52.394;9.756;2023-06-24T01:04:34;16.90;1.00
3208;DHT22;1616;52.394;9.756;2023-06-24T01:07:02;16.90;1.00
3208;DHT22;1616;52.394;9.756;2023-06-24T01:09:29;16.90;1.00
3208;DHT22;1616;52.394;9.756;2023-06-24T01:11:55;16.80;1.00
3208;DHT22;1616;52.394;9.756;2023-06-24T01:14:21;16.80;1.00
3208;DHT22;1616;52.394;9.756;2023-06-24T01:17:15;16.70;1.00
3208;DHT22;1616;52.394;9.756;2023-06-24T01:20:02;16.70;1.00
3208;DHT22;1616;52.394;9.756;2023-06-24T01:25:21;16.60;1.00
3208;DHT22;1616;52.394;9.756;2023-06-24T01:28:20;16.60;1.00
3208;DHT22;1616;52.394;9.756;2023-06-24T01:33:29;16.60;1.00
3208;DHT22;1616;52.394;9.756;2023-06-24T01:35:58;16.60;1.00
3208;DHT22;1616;52.394;9.756;2023-06-24T01:38:31;16.60;1.00
3208;DHT22;1616;52.394;9.756;2023-06-24T01:41:00;16.60;1.00
3208;DHT22;1616;52.394;9.756;2023-06-24T01:43:28;16.60;1.00
3208;DHT22;1616;52.394;9.756;2023-06-24T01:45:55;16.50;1.00
3208;DHT22;1616;52.394;9.756;2023-06-24T01:48:27;16.60;1.00
3208;DHT22;1616;52.394;9.756;2023-06-24T01:51:03;16.60;1.00
3208;DHT22;1616;52.394;9.756;2023-06-24T01:53:34;16.50;1.00
3208;DHT22;1616;52.394;9.756;2023-06-24T01:56:01;16.50;1.00
3208;DHT22;1616;52.394;9.756;2023-06-24T01:58:28;16.50;1.00
3208;DHT22;1616;52.394;9.756;2023-06-24T02:00:56;16.50;1.00
3208;DHT22;1616;52.394;9.756;2023-06-24T02:03:23;16.50;1.00
3208;DHT22;1616;52.394;9.756;2023-06-24T02:05:51;16.50;1.00
3208;DHT22;1616;52.394;9.756;2023-06-24T02:08:19;16.40;1.00
3208;DHT22;1616;52.394;9.756;2023-06-24T02:10:46;16.40;1.00
3208;DHT22;1616;52.394;9.756;2023-06-24T02:13:13;16.40;1.00
3208;DHT22;1616;52.394;9.756;2023-06-24T02:15:40;16.40;1.00
3208;DHT22;1616;52.394;9.756;2023-06-24T02:18:08;16.40;1.00
3208;DHT22;1616;52.394;9.756;2023-06-24T02:20:36;16.30;1.00
3208;DHT22;1616;52.394;9.756;2023-06-24T02:23:06;16.30;1.00
3208;DHT22;1616;52.394;9.756;2023-06-24T02:25:34;16.30;1.00
3208;DHT22;1616;52.394;9.756;2023-06-24T02:28:00;16.30;1.00
3208;DHT22;1616;52.394;9.756;2023-06-24T02:30:26;16.30;1.00
3208;DHT22;1616;52.394;9.756;2023-06-24T02:32:53;16.30;1.00
3208;DHT22;1616;52.394;9.756;2023-06-24T02:35:19;16.30;1.00
3208;DHT22;1616;52.394;9.756;2023-06-24T02:37:45;16.30;1.00
3208;DHT22;1616;52.394;9.756;2023-06-24T02:40:11;16.30;1.00
3208;DHT22;1616;52.394;9.756;2023-06-24T02:42:37;16.20;1.00
3208;DHT22;1616;52.394;9.756;2023-06-24T02:45:04;16.20;1.00
3208;DHT22;1616;52.394;9.756;2023-06-24T02:47:30;16.10;1.00
3208;DHT22;1616;52.394;9.756;2023-06-24T02:49:57;16.00;1.00
3208;DHT22;1616;52.394;9.756;2023-06-24T02:52:24;15.90;1.00
3208;DHT22;1616;52.394;9.756;2023-06-24T02:54:57;15.80;1.00
3208;DHT22;1616;52.394;9.756;2023-06-24T02:57:25;15.80;1.00
3208;DHT22;1616;52.394;9.756;2023-06-24T02:59:51;15.80;1.00
3208;DHT22;1616;52.394;9.756;2023-06-24T03:02:17;15.70;1.00
3208;DHT22;1616;52.394;9.756;2023-06-24T03:04:43;15.60;1.00
3208;DHT22;1616;52.394;9.756;2023-06-24T03:07:10;15.70;1.00
3208;DHT22;1616;52.394;9.756;2023-06-24T03:09:36;15.60;1.00
3208;DHT22;1616;52.394;9.756;2023-06-24T03:12:03;15.60;1.00
3208;DHT22;1616;52.394;9.756;2023-06-24T03:14:28;15.60;1.00
3208;DHT22;1616;52.394;9.756;2023-06-24T03:16:54;15.50;1.00
3208;DHT22;1616;52.394;9.756;2023-06-24T03:19:20;15.40;1.00
3208;DHT22;1616;52.394;9.756;2023-06-24T03:21:45;15.40;1.00
3208;DHT22;1616;52.394;9.756;2023-06-24T03:24:11;15.40;1.00
3208;DHT22;1616;52.394;9.756;2023-06-24T03:26:38;15.30;1.00
3208;DHT22;1616;52.394;9.756;2023-06-24T03:29:05;15.40;1.00
3208;DHT22;1616;52.394;9.756;2023-06-24T03:31:32;15.50;1.00
3208;DHT22;1616;52.394;9.756;2023-06-24T03:33:58;15.60;1.00
3208;DHT22;1616;52.394;9.756;2023-06-24T03:36:23;15.90;1.00
3208;DHT22;1616;52.394;9.756;2023-06-24T03:38:50;16.10;1.00
3208;DHT22;1616;52.394;9.756;2023-06-24T03:41:16;16.40;1.00
3208;DHT22;1616;52.394;9.756;2023-06-24T03:43:41;16.80;1.00
3208;DHT22;1616;52.394;9.756;2023-06-24T03:46:07;17.20;1.00
3208;DHT22;1616;52.394;9.756;2023-06-24T03:48:33;17.50;1.00
3208;DHT22;1616;52.394;9.756;2023-06-24T03:51:00;17.90;1.00
3208;DHT22;1616;52.394;9.756;2023-06-24T03:53:25;18.40;1.00
3208;DHT22;1616;52.394;9.756;2023-06-24T03:55:51;18.80;1.00
3208;DHT22;1616;52.394;9.756;2023-06-24T03:58:18;19.30;1.00
3208;DHT22;1616;52.394;9.756;2023-06-24T04:00:46;19.70;1.00
3208;DHT22;1616;52.394;9.756;2023-06-24T04:03:15;20.10;1.00
3208;DHT22;1616;52.394;9.756;2023-06-24T04:05:43;20.50;1.00
3208;DHT22;1616;52.394;9.756;2023-06-24T04:08:09;20.90;1.00
3208;DHT22;1616;52.394;9.756;2023-06-24T04:10:34;21.20;1.00
3208;DHT22;1616;52.394;9.756;2023-06-24T04:13:00;21.60;1.00
3208;DHT22;1616;52.394;9.756;2023-06-24T04:15:26;21.90;1.00
3208;DHT22;1616;52.394;9.756;2023-06-24T04:17:51;22.30;1.00
3208;DHT22;1616;52.394;9.756;2023-06-24T04:20:17;22.70;1.00
3208;DHT22;1616;52.394;9.756;2023-06-24T04:22:42;23.10;1.00
3208;DHT22;1616;52.394;9.756;2023-06-24T04:25:08;23.50;1.00
3208;DHT22;1616;52.394;9.756;2023-06-24T04:27:34;23.90;1.00
3208;DHT22;1616;52.394;9.756;2023-06-24T04:30:01;24.20;1.00
3208;DHT22;1616;52.394;9.756;2023-06-24T04:32:27;24.60;1.00
3208;DHT22;1616;52.394;9.756;2023-06-24T04:34:52;25.00;1.00
3208;DHT22;1616;52.394;9.756;2023-06-24T04:37:19;25.30;1.00
3208;DHT22;1616;52.394;9.756;2023-06-24T04:39:44;25.60;1.00
3208;DHT22;1616;52.394;9.756;2023-06-24T04:42:11;26.00;1.00
3208;DHT22;1616;52.394;9.756;2023-06-24T04:44:37;26.40;1.00
3208;DHT22;1616;52.394;9.756;2023-06-24T04:47:02;26.60;1.00
3208;DHT22;1616;52.394;9.756;2023-06-24T04:49:28;26.90;1.00
3208;DHT22;1616;52.394;9.756;2023-06-24T04:51:54;27.20;1.00
3208;DHT22;1616;52.394;9.756;2023-06-24T04:54:20;27.50;1.00
3208;DHT22;1616;52.394;9.756;2023-06-24T04:56:45;27.70;1.00
3208;DHT22;1616;52.394;9.756;2023-06-24T04:59:13;27.90;1.00
3208;DHT22;1616;52.394;9.756;2023-06-24T05:01:39;28.20;1.00
3208;DHT22;1616;52.394;9.756;2023-06-24T05:04:04;28.50;1.00
3208;DHT22;1616;52.394;9.756;2023-06-24T05:06:30;28.70;1.00
3208;DHT22;1616;52.394;9.756;2023-06-24T05:08:55;29.00;1.00
3208;DHT22;1616;52.394;9.756;2023-06-24T05:11:22;29.20;1.00
3208;DHT22;1616;52.394;9.756;2023-06-24T05:13:47;29.40;1.00
3208;DHT22;1616;52.394;9.756;2023-06-24T05:16:13;29.60;1.00
3208;DHT22;1616;52.394;9.756;2023-06-24T05:18:38;29.60;1.00
3208;DHT22;1616;52.394;9.756;2023-06-24T05:21:04;29.70;1.00
3208;DHT22;1616;52.394;9.756;2023-06-24T05:23:29;29.90;1.00
3208;DHT22;1616;52.394;9.756;2023-06-24T05:25:55;30.10;1.00
3208;DHT22;1616;52.394;9.756;2023-06-24T05:28:20;30.20;1.00
3208;DHT22;1616;52.394;9.756;2023-06-24T05:30:46;30.40;1.00
3208;DHT22;1616;52.394;9.756;2023-06-24T05:33:12;30.40;1.00
3208;DHT22;1616;52.394;9.756;2023-06-24T05:35:37;30.50;1.00
3208;DHT22;1616;52.394;9.756;2023-06-24T05:38:06;30.60;1.00
3208;DHT22;1616;52.394;9.756;2023-06-24T05:40:32;30.70;1.00
3208;DHT22;1616;52.394;9.756;2023-06-24T05:42:58;31.00;1.00
3208;DHT22;1616;52.394;9.756;2023-06-24T05:45:23;31.10;1.00
3208;DHT22;1616;52.394;9.756;2023-06-24T05:47:49;31.30;1.00
3208;DHT22;1616;52.394;9.756;2023-06-24T05:50:15;31.50;1.00
3208;DHT22;1616;52.394;9.756;2023-06-24T05:52:41;31.60;1.00
3208;DHT22;1616;52.394;9.756;2023-06-24T05:55:07;31.70;1.00
3208;DHT22;1616;52.394;9.756;2023-06-24T05:57:32;31.70;1.00
3208;DHT22;1616;52.394;9.756;2023-06-24T05:59:58;31.80;1.00
3208;DHT22;1616;52.394;9.756;2023-06-24T06:02:24;31.90;1.00
3208;DHT22;1616;52.394;9.756;2023-06-24T06:04:50;31.90;1.00
3208;DHT22;1616;52.394;9.756;2023-06-24T06:07:16;32.00;1.00
3208;DHT22;1616;52.394;9.756;2023-06-24T06:09:42;32.10;1.00
3208;DHT22;1616;52.394;9.756;2023-06-24T06:12:08;32.10;1.00
3208;DHT22;1616;52.394;9.756;2023-06-24T06:14:34;32.20;1.00
3208;DHT22;1616;52.394;9.756;2023-06-24T06:17:00;32.20;1.00
3208;DHT22;1616;52.394;9.756;2023-06-24T06:19:25;32.10;1.00
3208;DHT22;1616;52.394;9.756;2023-06-24T06:21:51;31.80;1.00
3208;DHT22;1616;52.394;9.756;2023-06-24T06:24:17;31.90;1.00
3208;DHT22;1616;52.394;9.756;2023-06-24T06:26:43;31.90;1.00
3208;DHT22;1616;52.394;9.756;2023-06-24T06:29:11;31.90;1.00
3208;DHT22;1616;52.394;9.756;2023-06-24T06:31:37;31.90;1.00
3208;DHT22;1616;52.394;9.756;2023-06-24T06:34:03;31.90;1.00
3208;DHT22;1616;52.394;9.756;2023-06-24T06:36:29;32.00;1.00
3208;DHT22;1616;52.394;9.756;2023-06-24T06:38:54;32.10;1.00
3208;DHT22;1616;52.394;9.756;2023-06-24T06:41:20;32.30;1.00
3208;DHT22;1616;52.394;9.756;2023-06-24T06:43:52;32.40;1.00
3208;DHT22;1616;52.394;9.756;2023-06-24T06:46:18;32.50;1.00
3208;DHT22;1616;52.394;9.756;2023-06-24T06:48:43;32.70;1.00
3208;DHT22;1616;52.394;9.756;2023-06-24T06:51:09;32.80;1.00
3208;DHT22;1616;52.394;9.756;2023-06-24T06:53:35;32.90;1.00
3208;DHT22;1616;52.394;9.756;2023-06-24T06:56:00;32.90;1.00
3208;DHT22;1616;52.394;9.756;2023-06-24T06:58:26;33.10;1.00
3208;DHT22;1616;52.394;9.756;2023-06-24T07:00:52;33.10;1.00
3208;DHT22;1616;52.394;9.756;2023-06-24T07:03:18;33.10;1.00
3208;DHT22;1616;52.394;9.756;2023-06-24T07:05:43;33.30;1.00
3208;DHT22;1616;52.394;9.756;2023-06-24T07:08:09;33.40;1.00
3208;DHT22;1616;52.394;9.756;2023-06-24T07:10:35;33.60;1.00
3208;DHT22;1616;52.394;9.756;2023-06-24T07:13:00;33.70;1.00
3208;DHT22;1616;52.394;9.756;2023-06-24T07:15:26;33.80;1.00
3208;DHT22;1616;52.394;9.756;2023-06-24T07:17:52;34.10;1.00
3208;DHT22;1616;52.394;9.756;2023-06-24T07:20:19;34.20;1.00
3208;DHT22;1616;52.394;9.756;2023-06-24T07:22:45;34.30;1.00
3208;DHT22;1616;52.394;9.756;2023-06-24T07:25:11;34.30;1.00
3208;DHT22;1616;52.394;9.756;2023-06-24T07:27:37;34.30;1.00
3208;DHT22;1616;52.394;9.756;2023-06-24T07:30:04;34.10;1.00
3208;DHT22;1616;52.394;9.756;2023-06-24T07:32:30;34.10;1.00
3208;DHT22;1616;52.394;9.756;2023-06-24T07:34:56;34.20;1.00
3208;DHT22;1616;52.394;9.756;2023-06-24T07:37:22;34.30;1.00
3208;DHT22;1616;52.394;9.756;2023-06-24T07:39:48;34.50;1.00
3208;DHT22;1616;52.394;9.756;2023-06-24T07:42:14;34.60;1.00
3208;DHT22;1616;52.394;9.756;2023-06-24T07:44:48;34.60;1.00
3208;DHT22;1616;52.394;9.756;2023-06-24T07:47:16;34.70;1.00
3208;DHT22;1616;52.394;9.756;2023-06-24T07:49:42;34.70;1.00
3208;DHT22;1616;52.394;9.756;2023-06-24T07:52:07;34.80;1.00
3208;DHT22;1616;52.394;9.756;2023-06-24T07:54:34;34.90;1.00
3208;DHT22;1616;52.394;9.756;2023-06-24T07:56:59;35.00;1.00
3208;DHT22;1616;52.394;9.756;2023-06-24T07:59:25;35.10;1.00
3208;DHT22;1616;52.394;9.756;2023-06-24T08:01:51;35.20;1.00
3208;DHT22;1616;52.394;9.756;2023-06-24T08:04:16;35.20;1.00
3208;DHT22;1616;52.394;9.756;2023-06-24T08:06:42;35.20;1.00
3208;DHT22;1616;52.394;9.756;2023-06-24T08:09:08;35.10;1.00
3208;DHT22;1616;52.394;9.756;2023-06-24T08:11:34;35.00;1.00
3208;DHT22;1616;52.394;9.756;2023-06-24T08:13:59;35.10;1.00
3208;DHT22;1616;52.394;9.756;2023-06-24T08:16:25;35.30;1.00
3208;DHT22;1616;52.394;9.756;2023-06-24T08:18:50;35.50;1.00
3208;DHT22;1616;52.394;9.756;2023-06-24T08:21:16;35.60;1.00
3208;DHT22;1616;52.394;9.756;2023-06-24T08:23:42;35.70;1.00
3208;DHT22;1616;52.394;9.756;2023-06-24T08:26:07;35.70;1.00
3208;DHT22;1616;52.394;9.756;2023-06-24T08:28:35;35.90;1.00
3208;DHT22;1616;52.394;9.756;2023-06-24T08:31:00;36.10;1.00
3208;DHT22;1616;52.394;9.756;2023-06-24T08:33:26;36.10;1.00
3208;DHT22;1616;52.394;9.756;2023-06-24T08:35:52;36.30;1.00
3208;DHT22;1616;52.394;9.756;2023-06-24T08:38:17;36.40;1.00
3208;DHT22;1616;52.394;9.756;2023-06-24T08:40:44;36.60;1.00
3208;DHT22;1616;52.394;9.756;2023-06-24T08:43:11;36.60;1.00
3208;DHT22;1616;52.394;9.756;2023-06-24T08:45:37;36.50;1.00
3208;DHT22;1616;52.394;9.756;2023-06-24T08:48:03;36.60;1.00
3208;DHT22;1616;52.394;9.756;2023-06-24T08:50:37;36.70;1.00
3208;DHT22;1616;52.394;9.756;2023-06-24T08:53:07;36.60;1.00
3208;DHT22;1616;52.394;9.756;2023-06-24T08:55:39;36.60;1.00
3208;DHT22;1616;52.394;9.756;2023-06-24T08:58:05;36.50;1.00
3208;DHT22;1616;52.394;9.756;2023-06-24T09:00:31;36.60;1.00
3208;DHT22;1616;52.394;9.756;2023-06-24T09:02:57;36.70;1.00
3208;DHT22;1616;52.394;9.756;2023-06-24T09:05:23;36.80;1.00
3208;DHT22;1616;52.394;9.756;2023-06-24T09:07:49;36.80;1.00
3208;DHT22;1616;52.394;9.756;2023-06-24T09:10:35;36.90;1.00
3208;DHT22;1616;52.394;9.756;2023-06-24T09:13:01;37.00;1.00
3208;DHT22;1616;52.394;9.756;2023-06-24T09:15:34;37.00;1.00
3208;DHT22;1616;52.394;9.756;2023-06-24T09:18:00;37.10;1.00
3208;DHT22;1616;52.394;9.756;2023-06-24T09:20:30;37.20;1.00
3208;DHT22;1616;52.394;9.756;2023-06-24T09:23:03;37.30;1.00
3208;DHT22;1616;52.394;9.756;2023-06-24T09:25:32;37.50;1.00
3208;DHT22;1616;52.394;9.756;2023-06-24T09:28:01;37.70;1.00
3208;DHT22;1616;52.394;9.756;2023-06-24T09:30:27;37.80;1.00
3208;DHT22;1616;52.394;9.756;2023-06-24T09:32:53;37.90;1.00
3208;DHT22;1616;52.394;9.756;2023-06-24T09:35:21;37.90;1.00
3208;DHT22;1616;52.394;9.756;2023-06-24T09:37:51;37.90;1.00
3208;DHT22;1616;52.394;9.756;2023-06-24T09:40:17;38.10;1.00
3208;DHT22;1616;52.394;9.756;2023-06-24T09:45:25;38.30;1.00
3208;DHT22;1616;52.394;9.756;2023-06-24T09:47:52;38.50;1.00
3208;DHT22;1616;52.394;9.756;2023-06-24T09:50:17;38.50;1.00
3208;DHT22;1616;52.394;9.756;2023-06-24T09:52:45;38.50;1.00
3208;DHT22;1616;52.394;9.756;2023-06-24T09:55:15;38.70;1.00
3208;DHT22;1616;52.394;9.756;2023-06-24T09:57:47;38.80;1.00
3208;DHT22;1616;52.394;9.756;2023-06-24T10:00:14;39.00;1.00
3208;DHT22;1616;52.394;9.756;2023-06-24T10:02:42;39.10;1.00
3208;DHT22;1616;52.394;9.756;2023-06-24T10:05:08;39.10;1.00
3208;DHT22;1616;52.394;9.756;2023-06-24T10:07:35;39.20;1.00
3208;DHT22;1616;52.394;9.756;2023-06-24T10:10:02;39.20;1.00
3208;DHT22;1616;52.394;9.756;2023-06-24T10:12:28;39.20;1.00
3208;DHT22;1616;52.394;9.756;2023-06-24T10:14:55;39.30;1.00
3208;DHT22;1616;52.394;9.756;2023-06-24T10:17:20;39.40;1.00
3208;DHT22;1616;52.394;9.756;2023-06-24T10:19:46;39.60;1.00
3208;DHT22;1616;52.394;9.756;2023-06-24T10:22:12;39.70;1.00
3208;DHT22;1616;52.394;9.756;2023-06-24T10:24:40;39.80;1.00
3208;DHT22;1616;52.394;9.756;2023-06-24T10:27:16;39.80;1.00
3208;DHT22;1616;52.394;9.756;2023-06-24T10:29:49;39.90;1.00
3208;DHT22;1616;52.394;9.756;2023-06-24T10:32:15;40.00;1.00
3208;DHT22;1616;52.394;9.756;2023-06-24T10:34:42;40.00;1.00
3208;DHT22;1616;52.394;9.756;2023-06-24T10:37:11;40.10;1.00
3208;DHT22;1616;52.394;9.756;2023-06-24T10:42:25;39.90;1.00
3208;DHT22;1616;52.394;9.756;2023-06-24T10:44:52;39.90;1.00
3208;DHT22;1616;52.394;9.756;2023-06-24T10:47:18;39.80;1.00
3208;DHT22;1616;52.394;9.756;2023-06-24T10:49:45;39.60;1.00
3208;DHT22;1616;52.394;9.756;2023-06-24T10:52:11;39.40;1.00
3208;DHT22;1616;52.394;9.756;2023-06-24T10:54:38;39.40;1.00
3208;DHT22;1616;52.394;9.756;2023-06-24T10:57:04;39.30;1.00
3208;DHT22;1616;52.394;9.756;2023-06-24T10:59:40;39.40;1.00
3208;DHT22;1616;52.394;9.756;2023-06-24T11:02:12;39.50;1.00
3208;DHT22;1616;52.394;9.756;2023-06-24T11:04:48;39.70;1.00
3208;DHT22;1616;52.394;9.756;2023-06-24T11:07:16;39.80;1.00
3208;DHT22;1616;52.394;9.756;2023-06-24T11:09:42;39.70;1.00
3208;DHT22;1616;52.394;9.756;2023-06-24T11:12:09;39.70;1.00
3208;DHT22;1616;52.394;9.756;2023-06-24T11:14:36;39.80;1.00
3208;DHT22;1616;52.394;9.756;2023-06-24T11:17:03;39.80;1.00
3208;DHT22;1616;52.394;9.756;2023-06-24T11:19:29;39.90;1.00
3208;DHT22;1616;52.394;9.756;2023-06-24T11:21:59;40.00;1.00
3208;DHT22;1616;52.394;9.756;2023-06-24T11:24:26;40.00;1.00
3208;DHT22;1616;52.394;9.756;2023-06-24T11:26:52;39.90;1.00
3208;DHT22;1616;52.394;9.756;2023-06-24T11:29:17;39.70;1.00
3208;DHT22;1616;52.394;9.756;2023-06-24T11:31:45;39.30;1.00
3208;DHT22;1616;52.394;9.756;2023-06-24T11:34:10;38.60;1.00
3208;DHT22;1616;52.394;9.756;2023-06-24T11:36:36;38.30;1.00
3208;DHT22;1616;52.394;9.756;2023-06-24T11:39:02;38.20;1.00
3208;DHT22;1616;52.394;9.756;2023-06-24T11:41:28;38.20;1.00
3208;DHT22;1616;52.394;9.756;2023-06-24T11:43:57;38.20;1.00
3208;DHT22;1616;52.394;9.756;2023-06-24T11:46:27;38.10;1.00
3208;DHT22;1616;52.394;9.756;2023-06-24T11:49:06;38.30;1.00
3208;DHT22;1616;52.394;9.756;2023-06-24T11:51:32;39.10;1.00
3208;DHT22;1616;52.394;9.756;2023-06-24T11:54:05;38.60;1.00
3208;DHT22;1616;52.394;9.756;2023-06-24T11:56:35;38.70;1.00
3208;DHT22;1616;52.394;9.756;2023-06-24T11:59:01;38.90;1.00
3208;DHT22;1616;52.394;9.756;2023-06-24T12:01:34;39.10;1.00
3208;DHT22;1616;52.394;9.756;2023-06-24T12:04:15;39.40;1.00
3208;DHT22;1616;52.394;9.756;2023-06-24T12:06:42;39.30;1.00
3208;DHT22;1616;52.394;9.756;2023-06-24T12:09:08;39.40;1.00
3208;DHT22;1616;52.394;9.756;2023-06-24T12:11:34;39.60;1.00
3208;DHT22;1616;52.394;9.756;2023-06-24T12:14:02;40.00;1.00
3208;DHT22;1616;52.394;9.756;2023-06-24T12:16:27;40.40;1.00
3208;DHT22;1616;52.394;9.756;2023-06-24T12:18:53;40.50;1.00
3208;DHT22;1616;52.394;9.756;2023-06-24T12:21:19;40.40;1.00
3208;DHT22;1616;52.394;9.756;2023-06-24T12:23:45;40.40;1.00
3208;DHT22;1616;52.394;9.756;2023-06-24T12:26:11;40.40;1.00
3208;DHT22;1616;52.394;9.756;2023-06-24T12:28:37;40.40;1.00
3208;DHT22;1616;52.394;9.756;2023-06-24T12:31:03;40.20;1.00
3208;DHT22;1616;52.394;9.756;2023-06-24T12:33:29;39.40;1.00
3208;DHT22;1616;52.394;9.756;2023-06-24T12:35:55;38.60;1.00
3208;DHT22;1616;52.394;9.756;2023-06-24T12:38:20;37.90;1.00
3208;DHT22;1616;52.394;9.756;2023-06-24T12:40:46;37.50;1.00
3208;DHT22;1616;52.394;9.756;2023-06-24T12:43:14;37.10;1.00
3208;DHT22;1616;52.394;9.756;2023-06-24T12:45:40;36.80;1.00
3208;DHT22;1616;52.394;9.756;2023-06-24T12:48:09;36.90;1.00
3208;DHT22;1616;52.394;9.756;2023-06-24T12:50:35;37.10;1.00
3208;DHT22;1616;52.394;9.756;2023-06-24T12:53:01;37.10;1.00
3208;DHT22;1616;52.394;9.756;2023-06-24T12:55:29;36.80;1.00
3208;DHT22;1616;52.394;9.756;2023-06-24T12:57:55;36.50;1.00
3208;DHT22;1616;52.394;9.756;2023-06-24T13:00:22;36.00;1.00
3208;DHT22;1616;52.394;9.756;2023-06-24T13:02:48;35.50;1.00
3208;DHT22;1616;52.394;9.756;2023-06-24T13:05:14;34.80;1.00
3208;DHT22;1616;52.394;9.756;2023-06-24T13:07:40;34.30;1.00
3208;DHT22;1616;52.394;9.756;2023-06-24T13:10:06;33.90;1.00
3208;DHT22;1616;52.394;9.756;2023-06-24T13:12:33;33.60;1.00
3208;DHT22;1616;52.394;9.756;2023-06-24T13:14:59;33.70;1.00
3208;DHT22;1616;52.394;9.756;2023-06-24T13:17:25;34.00;1.00
3208;DHT22;1616;52.394;9.756;2023-06-24T13:19:51;34.30;1.00
3208;DHT22;1616;52.394;9.756;2023-06-24T13:22:17;34.60;1.00
3208;DHT22;1616;52.394;9.756;2023-06-24T13:24:44;34.90;1.00
3208;DHT22;1616;52.394;9.756;2023-06-24T13:27:10;35.20;1.00
3208;DHT22;1616;52.394;9.756;2023-06-24T13:29:36;35.20;1.00
3208;DHT22;1616;52.394;9.756;2023-06-24T13:32:02;35.30;1.00
3208;DHT22;1616;52.394;9.756;2023-06-24T13:34:28;35.20;1.00
3208;DHT22;1616;52.394;9.756;2023-06-24T13:36:53;35.20;1.00
3208;DHT22;1616;52.394;9.756;2023-06-24T13:39:19;35.10;1.00
3208;DHT22;1616;52.394;9.756;2023-06-24T13:41:49;34.90;1.00
3208;DHT22;1616;52.394;9.756;2023-06-24T13:44:15;34.70;1.00
3208;DHT22;1616;52.394;9.756;2023-06-24T13:46:40;34.40;1.00
3208;DHT22;1616;52.394;9.756;2023-06-24T13:49:06;34.00;1.00
3208;DHT22;1616;52.394;9.756;2023-06-24T13:51:33;33.80;1.00
3208;DHT22;1616;52.394;9.756;2023-06-24T13:53:58;33.60;1.00
3208;DHT22;1616;52.394;9.756;2023-06-24T13:56:25;33.40;1.00
3208;DHT22;1616;52.394;9.756;2023-06-24T13:58:53;33.20;1.00
3208;DHT22;1616;52.394;9.756;2023-06-24T14:01:19;33.10;1.00
3208;DHT22;1616;52.394;9.756;2023-06-24T14:03:45;32.90;1.00
3208;DHT22;1616;52.394;9.756;2023-06-24T14:06:14;32.90;1.00
3208;DHT22;1616;52.394;9.756;2023-06-24T14:08:41;32.80;1.00
3208;DHT22;1616;52.394;9.756;2023-06-24T14:11:07;32.70;1.00
3208;DHT22;1616;52.394;9.756;2023-06-24T14:13:33;32.50;1.00
3208;DHT22;1616;52.394;9.756;2023-06-24T14:15:59;32.50;1.00
3208;DHT22;1616;52.394;9.756;2023-06-24T14:18:25;32.50;1.00
3208;DHT22;1616;52.394;9.756;2023-06-24T14:20:51;32.30;1.00
3208;DHT22;1616;52.394;9.756;2023-06-24T14:23:17;32.20;1.00
3208;DHT22;1616;52.394;9.756;2023-06-24T14:25:43;32.00;1.00
3208;DHT22;1616;52.394;9.756;2023-06-24T14:28:08;31.80;1.00
3208;DHT22;1616;52.394;9.756;2023-06-24T14:30:34;31.60;1.00
3208;DHT22;1616;52.394;9.756;2023-06-24T14:33:01;31.40;1.00
3208;DHT22;1616;52.394;9.756;2023-06-24T14:35:26;31.30;1.00
3208;DHT22;1616;52.394;9.756;2023-06-24T14:37:52;31.30;1.00
3208;DHT22;1616;52.394;9.756;2023-06-24T14:40:18;31.30;1.00
3208;DHT22;1616;52.394;9.756;2023-06-24T14:42:43;31.30;1.00
3208;DHT22;1616;52.394;9.756;2023-06-24T14:45:09;31.30;1.00
3208;DHT22;1616;52.394;9.756;2023-06-24T14:47:35;31.30;1.00
3208;DHT22;1616;52.394;9.756;2023-06-24T14:50:02;31.20;1.00
3208;DHT22;1616;52.394;9.756;2023-06-24T14:52:29;31.20;1.00
3208;DHT22;1616;52.394;9.756;2023-06-24T14:54:54;31.30;1.00
3208;DHT22;1616;52.394;9.756;2023-06-24T14:57:20;31.20;1.00
3208;DHT22;1616;52.394;9.756;2023-06-24T14:59:48;31.20;1.00
3208;DHT22;1616;52.394;9.756;2023-06-24T15:02:14;31.20;1.00
3208;DHT22;1616;52.394;9.756;2023-06-24T15:04:40;31.10;1.00
3208;DHT22;1616;52.394;9.756;2023-06-24T15:07:06;31.00;1.00
3208;DHT22;1616;52.394;9.756;2023-06-24T15:09:32;30.90;1.00
3208;DHT22;1616;52.394;9.756;2023-06-24T15:11:59;30.80;1.00
3208;DHT22;1616;52.394;9.756;2023-06-24T15:14:25;30.80;1.00
3208;DHT22;1616;52.394;9.756;2023-06-24T15:16:52;30.70;1.00
3208;DHT22;1616;52.394;9.756;2023-06-24T15:19:20;30.80;1.00
3208;DHT22;1616;52.394;9.756;2023-06-24T15:21:45;30.70;1.00
3208;DHT22;1616;52.394;9.756;2023-06-24T15:24:11;30.80;1.00
3208;DHT22;1616;52.394;9.756;2023-06-24T15:26:37;30.80;1.00
3208;DHT22;1616;52.394;9.756;2023-06-24T15:29:02;30.90;1.00
3208;DHT22;1616;52.394;9.756;2023-06-24T15:31:28;31.00;1.00
3208;DHT22;1616;52.394;9.756;2023-06-24T15:33:54;30.90;1.00
3208;DHT22;1616;52.394;9.756;2023-06-24T15:36:21;30.90;1.00
3208;DHT22;1616;52.394;9.756;2023-06-24T15:38:47;30.80;1.00
3208;DHT22;1616;52.394;9.756;2023-06-24T15:41:13;30.70;1.00
3208;DHT22;1616;52.394;9.756;2023-06-24T15:43:40;30.70;1.00
3208;DHT22;1616;52.394;9.756;2023-06-24T15:46:06;30.60;1.00
3208;DHT22;1616;52.394;9.756;2023-06-24T15:48:32;30.60;1.00
3208;DHT22;1616;52.394;9.756;2023-06-24T15:50:57;30.70;1.00
3208;DHT22;1616;52.394;9.756;2023-06-24T15:53:25;30.60;1.00
3208;DHT22;1616;52.394;9.756;2023-06-24T15:55:51;30.70;1.00
3208;DHT22;1616;52.394;9.756;2023-06-24T15:58:17;30.60;1.00
3208;DHT22;1616;52.394;9.756;2023-06-24T16:00:42;30.60;1.00
3208;DHT22;1616;52.394;9.756;2023-06-24T16:03:08;30.60;1.00
3208;DHT22;1616;52.394;9.756;2023-06-24T16:05:33;30.50;1.00
3208;DHT22;1616;52.394;9.756;2023-06-24T16:07:59;30.40;1.00
3208;DHT22;1616;52.394;9.756;2023-06-24T16:10:25;30.20;1.00
3208;DHT22;1616;52.394;9.756;2023-06-24T16:12:51;30.20;1.00
3208;DHT22;1616;52.394;9.756;2023-06-24T16:15:16;30.20;1.00
3208;DHT22;1616;52.394;9.756;2023-06-24T16:17:42;30.10;1.00
3208;DHT22;1616;52.394;9.756;2023-06-24T16:20:08;30.00;1.00
3208;DHT22;1616;52.394;9.756;2023-06-24T16:22:39;29.90;1.00
3208;DHT22;1616;52.394;9.756;2023-06-24T16:25:04;29.80;1.00